createdAt,value
2018-11-02T00:00:10.673Z,100206.87
2018-11-02T00:05:14.079Z,100202.77
2018-11-02T00:10:17.400Z,100202.95
2018-11-02T00:15:20.750Z,100214.53
2018-11-02T00:20:24.135Z,100241.14
2018-11-02T00:25:27.442Z,100251.55
2018-11-02T00:30:30.804Z,100243.44
2018-11-02T00:35:34.416Z,100246.23
2018-11-02T00:40:37.908Z,100256.80
2018-11-02T00:45:41.238Z,100257.92
2018-11-02T00:50:44.766Z,100252.62
2018-11-02T00:55:48.272Z,100253.97
2018-11-02T01:00:51.754Z,100244.86
2018-11-02T01:05:55.309Z,100243.39
2018-11-02T01:10:58.623Z,100264.52
2018-11-02T01:16:02.039Z,100259.08
2018-11-02T01:21:05.497Z,100255.43
2018-11-02T01:26:08.787Z,100271.77
2018-11-02T01:31:12.234Z,100278.70
2018-11-02T01:36:15.554Z,100286.97
2018-11-02T01:41:19.170Z,100292.25
2018-11-02T01:46:22.511Z,100303.02
2018-11-02T01:51:26.011Z,100315.42
2018-11-02T01:56:29.662Z,100330.12
2018-11-02T02:01:33.119Z,100329.63
2018-11-02T02:06:36.569Z,100338.75
2018-11-02T02:11:40.149Z,100336.09
2018-11-02T02:16:43.506Z,100341.89
2018-11-02T02:21:46.813Z,100345.00
2018-11-02T02:26:50.272Z,100334.42
2018-11-02T02:31:53.733Z,100335.25
2018-11-02T02:36:57.270Z,100342.03
2018-11-02T02:42:00.653Z,100335.24
2018-11-02T02:47:03.966Z,100339.39
2018-11-02T02:52:07.381Z,100340.39
2018-11-02T02:57:10.870Z,100343.22
2018-11-02T03:02:14.501Z,100345.19
2018-11-02T03:07:17.884Z,100340.57
2018-11-02T03:12:21.245Z,100358.27
2018-11-02T03:17:24.586Z,100366.71
2018-11-02T03:22:28.102Z,100378.30
2018-11-02T03:27:31.550Z,100377.12
2018-11-02T03:32:34.937Z,100386.06
2018-11-02T03:37:38.351Z,100398.61
2018-11-02T03:42:41.943Z,100397.47
2018-11-02T03:47:45.344Z,100400.94
2018-11-02T03:52:48.838Z,100397.14
2018-11-02T03:57:52.134Z,100397.81
2018-11-02T04:02:55.439Z,100406.58
2018-11-02T04:07:58.770Z,100420.63
2018-11-02T04:13:02.099Z,100416.69
2018-11-02T04:18:05.981Z,100435.52
2018-11-02T04:23:09.295Z,100456.53
2018-11-02T04:28:12.877Z,100457.81
2018-11-02T04:33:16.447Z,100452.52
2018-11-02T04:38:19.812Z,100455.66
2018-11-02T04:43:23.335Z,100477.48
2018-11-02T04:48:26.854Z,100481.97
2018-11-02T04:53:30.321Z,100493.06
2018-11-02T04:58:33.716Z,100492.75
2018-11-02T05:03:37.254Z,100500.69
2018-11-02T05:08:40.790Z,100503.65
2018-11-02T05:13:44.121Z,100497.05
2018-11-02T05:18:47.551Z,100499.20
2018-11-02T05:23:51.042Z,100511.59
2018-11-02T05:28:54.614Z,100506.78
2018-11-02T05:33:57.958Z,100519.20
2018-11-02T05:39:01.255Z,100526.10
2018-11-02T05:44:04.558Z,100540.96
2018-11-02T05:49:08.184Z,100544.60
2018-11-02T05:54:12.259Z,100562.48
2018-11-02T05:59:15.744Z,100571.27
2018-11-02T06:04:19.195Z,100591.30
2018-11-02T06:09:22.801Z,100593.27
2018-11-02T06:14:26.632Z,100605.02
2018-11-02T06:19:30.199Z,100609.19
2018-11-02T06:24:33.843Z,100622.41
2018-11-02T06:29:37.415Z,100629.85
2018-11-02T06:34:40.879Z,100640.27
2018-11-02T06:39:44.364Z,100645.91
2018-11-02T06:44:48.076Z,100649.23
2018-11-02T06:49:51.674Z,100660.49
2018-11-02T06:54:55.292Z,100668.61
2018-11-02T06:59:58.920Z,100676.41
2018-11-02T07:05:02.478Z,100674.61
2018-11-02T07:10:06.586Z,100690.66
2018-11-02T07:15:09.902Z,100700.28
2018-11-02T07:20:13.291Z,100711.20
2018-11-02T07:25:16.747Z,100726.77
2018-11-02T07:30:19.998Z,100736.73
2018-11-02T07:35:23.302Z,100739.38
2018-11-02T07:40:26.719Z,100739.87
2018-11-02T07:45:30.257Z,100745.65
2018-11-02T07:50:33.565Z,100755.87
2018-11-02T07:55:36.881Z,100749.25
2018-11-02T08:00:40.182Z,100751.22
2018-11-02T08:05:43.806Z,100759.46
2018-11-02T08:10:47.154Z,100766.17
2018-11-02T08:15:50.638Z,100776.36
2018-11-02T08:20:53.977Z,100786.28
2018-11-02T08:25:57.355Z,100781.80
2018-11-02T08:31:00.650Z,100798.42
2018-11-02T08:36:03.958Z,100808.52
2018-11-02T08:41:07.434Z,100810.72
2018-11-02T08:46:10.824Z,100819.16
2018-11-02T08:51:14.286Z,100818.80
2018-11-02T08:56:17.798Z,100826.34
2018-11-02T09:01:21.111Z,100831.08
2018-11-02T09:06:24.458Z,100840.81
2018-11-02T09:11:27.965Z,100842.23
2018-11-02T09:16:31.518Z,100838.84
2018-11-02T09:21:34.872Z,100851.39
2018-11-02T09:26:38.354Z,100831.09
2018-11-02T09:31:41.745Z,100827.34
2018-11-02T09:36:46.903Z,100838.03
2018-11-02T09:41:50.445Z,100835.97
2018-11-02T09:46:55.006Z,100843.58
2018-11-02T09:51:58.518Z,100855.83
2018-11-02T09:57:02.076Z,100857.77
2018-11-02T10:02:05.776Z,100871.80
2018-11-02T10:07:09.378Z,100880.36
2018-11-02T10:12:12.860Z,100887.95
2018-11-02T10:17:16.519Z,100877.94
2018-11-02T10:22:20.196Z,100885.73
2018-11-02T10:27:23.597Z,100898.98
2018-11-02T10:32:27.199Z,100893.45
2018-11-02T10:37:30.694Z,100889.94
2018-11-02T10:42:34.190Z,100905.31
2018-11-02T10:47:37.726Z,100901.81
2018-11-02T10:52:43.003Z,100888.30
2018-11-02T10:57:46.665Z,100897.98
2018-11-02T11:02:50.335Z,100895.96
2018-11-02T11:07:54.679Z,100903.58
2018-11-02T11:12:58.435Z,100901.19
2018-11-02T11:18:02.702Z,100903.48
2018-11-02T11:23:06.330Z,100905.05
2018-11-02T11:28:09.905Z,100903.38
2018-11-02T11:33:13.378Z,100889.52
2018-11-02T11:38:16.842Z,100887.25
2018-11-02T11:43:20.226Z,100870.81
2018-11-02T11:48:23.723Z,100872.45
2018-11-02T11:53:27.060Z,100870.06
2018-11-02T11:58:30.443Z,100873.27
2018-11-02T12:03:33.783Z,100881.95
2018-11-02T12:08:37.186Z,100881.70
2018-11-02T12:13:40.890Z,100873.63
2018-11-02T12:18:44.434Z,100884.94
2018-11-02T12:23:47.933Z,100884.70
2018-11-02T12:28:53.847Z,100874.84
2018-11-02T12:33:57.387Z,100873.98
2018-11-02T12:39:00.792Z,100879.53
2018-11-02T12:44:04.469Z,100873.73
2018-11-02T12:49:08.178Z,100874.02
2018-11-02T12:54:11.362Z,100882.84
2018-11-02T12:59:14.957Z,100876.19
2018-11-02T13:04:18.621Z,100883.61
2018-11-02T13:09:22.086Z,100887.75
2018-11-02T13:14:25.670Z,100902.75
2018-11-02T13:19:29.121Z,100892.71
2018-11-02T13:24:32.470Z,100894.60
2018-11-02T13:29:36.029Z,100898.23
2018-11-02T13:34:39.457Z,100882.13
2018-11-02T13:39:42.834Z,100888.58
2018-11-02T13:44:46.419Z,100894.77
2018-11-02T13:49:49.942Z,100906.93
2018-11-02T13:54:53.447Z,100904.37
2018-11-02T13:59:56.854Z,100915.53
2018-11-02T14:05:00.483Z,100908.21
2018-11-02T14:10:03.978Z,100919.66
2018-11-02T14:15:08.626Z,100929.27
2018-11-02T14:20:13.014Z,100942.23
2018-11-02T14:25:17.297Z,100948.06
2018-11-02T14:30:20.664Z,100950.90
2018-11-02T14:35:24.041Z,100950.26
2018-11-02T14:40:27.430Z,100955.56
2018-11-02T14:45:30.797Z,100950.70
2018-11-02T14:50:34.329Z,100954.64
2018-11-02T14:55:37.775Z,100968.52
2018-11-02T15:00:41.128Z,100986.88
2018-11-02T15:05:44.921Z,100969.13
2018-11-02T15:10:48.316Z,100980.63
2018-11-02T15:15:52.059Z,100982.59
2018-11-02T15:20:55.806Z,100998.13
2018-11-02T15:25:59.423Z,101002.14
2018-11-02T15:31:02.854Z,101006.37
2018-11-02T15:36:06.558Z,101010.94
2018-11-02T15:41:09.929Z,101012.03
2018-11-02T15:46:13.376Z,101018.27
2018-11-02T15:51:16.971Z,101011.67
2018-11-02T15:56:20.597Z,101017.13
2018-11-02T16:01:23.924Z,101011.73
2018-11-02T16:06:27.362Z,101031.30
2018-11-02T16:11:30.693Z,101037.16
2018-11-02T16:16:34.123Z,101035.23
2018-11-02T16:21:38.127Z,101042.86
2018-11-02T16:26:41.616Z,101046.63
2018-11-02T16:31:45.073Z,101054.66
2018-11-02T16:36:48.591Z,101072.29
2018-11-02T16:41:51.991Z,101060.00
2018-11-02T16:46:55.325Z,101059.88
2018-11-02T16:51:58.735Z,101066.72
2018-11-02T16:57:02.293Z,101075.05
2018-11-02T17:02:05.763Z,101084.91
2018-11-02T17:07:09.176Z,101099.62
2018-11-02T17:12:12.539Z,101091.38
2018-11-02T17:17:15.979Z,101093.44
2018-11-02T17:22:19.345Z,101109.63
2018-11-02T17:27:22.699Z,101123.00
2018-11-02T17:32:26.927Z,101130.34
2018-11-02T17:37:30.314Z,101137.05
2018-11-02T17:42:33.703Z,101143.24
2018-11-02T17:47:38.099Z,101144.55
2018-11-02T17:52:41.509Z,101162.05
2018-11-02T17:57:44.936Z,101164.71
2018-11-02T18:02:48.382Z,101166.86
2018-11-02T18:07:51.795Z,101171.39
2018-11-02T18:12:55.159Z,101181.37
2018-11-02T18:17:58.549Z,101198.65
2018-11-02T18:23:01.982Z,101198.31
2018-11-02T18:28:05.560Z,101198.99
2018-11-02T18:33:08.998Z,101209.30
2018-11-02T18:38:12.387Z,101232.06
2018-11-02T18:43:15.725Z,101242.86
2018-11-02T18:48:20.595Z,101259.63
2018-11-02T18:53:24.121Z,101260.48
2018-11-02T18:58:27.949Z,101258.49
2018-11-02T19:03:31.366Z,101266.95
2018-11-02T19:08:34.969Z,101265.81
2018-11-02T19:13:38.490Z,101252.48
2018-11-02T19:18:42.636Z,101252.17
2018-11-02T19:23:46.091Z,101249.68
2018-11-02T19:28:49.493Z,101259.30
2018-11-02T19:33:53.002Z,101264.64
2018-11-02T19:38:56.427Z,101270.78
2018-11-02T19:43:59.825Z,101285.07
2018-11-02T19:49:03.300Z,101289.22
2018-11-02T19:54:06.609Z,101294.84
2018-11-02T19:59:09.988Z,101307.96
2018-11-02T20:04:13.448Z,101303.80
2018-11-02T20:09:16.899Z,101310.61
2018-11-02T20:14:20.322Z,101308.77
2018-11-02T20:19:23.771Z,101318.41
2018-11-02T20:24:27.177Z,101326.55
2018-11-02T20:29:30.556Z,101324.04
2018-11-02T20:34:33.906Z,101316.21
2018-11-02T20:39:37.328Z,101300.09
2018-11-02T20:44:40.602Z,101314.31
2018-11-02T20:49:44.077Z,101322.56
2018-11-02T20:54:48.215Z,101321.17
2018-11-02T20:59:52.689Z,101318.79
2018-11-02T21:04:56.043Z,101337.01
2018-11-02T21:09:59.383Z,101344.60
2018-11-02T21:15:03.176Z,101349.41
2018-11-02T21:20:07.938Z,101359.87
2018-11-02T21:25:12.057Z,101361.23
2018-11-02T21:30:17.176Z,101350.95
2018-11-02T21:35:21.145Z,101349.28
2018-11-02T21:40:25.379Z,101357.55
2018-11-02T21:45:28.727Z,101345.73
2018-11-02T21:50:32.128Z,101349.80
2018-11-02T21:55:35.449Z,101354.61
2018-11-02T22:00:38.892Z,101355.69
2018-11-02T22:05:42.303Z,101351.05
2018-11-02T22:10:45.624Z,101346.45
2018-11-02T22:15:49.012Z,101340.52
2018-11-02T22:20:52.313Z,101333.95
2018-11-02T22:25:55.640Z,101339.42
2018-11-02T22:30:58.960Z,101338.09
2018-11-02T22:36:02.460Z,101339.09
2018-11-02T22:41:06.391Z,101347.92
2018-11-02T22:46:10.639Z,101356.14
2018-11-02T22:51:14.243Z,101361.41
2018-11-02T23:01:45.966Z,101367.50
2018-11-02T23:06:49.490Z,101373.02
2018-11-02T23:11:53.086Z,101374.89
2018-11-02T23:16:56.702Z,101375.80
2018-11-02T23:22:00.078Z,101385.99
2018-11-02T23:27:04.098Z,101382.34
2018-11-02T23:32:07.423Z,101383.84
2018-11-02T23:37:10.785Z,101390.64
2018-11-02T23:42:14.163Z,101398.44
2018-11-02T23:47:17.478Z,101392.50
2018-11-02T23:52:21.263Z,101396.32
2018-11-02T23:57:24.614Z,101398.28
